Time;durP1;ratioP1;P1;durP2;ratioP2;P2;SDS_P1;SDS_P2;PMS_P1;PMS_P2;Temp;Humidity;BMP_temperature;BMP_pressure;BME280_temperature;BME280_humidity;BME280_pressure;Samples;Min_cycle;Max_cycle;Signal;HPM_P1;HPM_P2
2022/07/17 00:01:23;;;;;;;3.10;1.00;;;22.40;51.80;;;;;;10368067;28;20478;-63
2022/07/17 00:06:24;;;;;;;3.25;1.25;;;22.30;51.80;;;;;;10402525;28;20036;-64
2022/07/17 00:11:25;;;;;;;2.40;1.20;;;22.40;51.80;;;;;;10381381;28;20460;-63
2022/07/17 00:16:26;;;;;;;2.03;0.90;;;22.30;52.40;;;;;;10366718;28;20121;-64
2022/07/17 00:21:26;;;;;;;2.17;0.90;;;22.30;51.70;;;;;;10366058;28;20041;-63
2022/07/17 00:26:27;;;;;;;3.08;1.25;;;22.30;52.30;;;;;;10375927;28;20048;-63
2022/07/17 00:31:28;;;;;;;2.75;1.10;;;22.30;51.70;;;;;;10378200;28;20048;-63
2022/07/17 00:36:29;;;;;;;1.83;1.35;;;22.30;51.80;;;;;;10373242;28;20026;-64
2022/07/17 00:41:30;;;;;;;1.92;0.90;;;22.30;51.70;;;;;;10365927;28;20046;-64
2022/07/17 00:46:31;;;;;;;2.28;0.70;;;22.30;51.80;;;;;;10366066;28;20026;-63
2022/07/17 00:51:33;;;;;;;2.83;1.25;;;22.30;51.70;;;;;;10366109;28;20034;-64
2022/07/17 00:56:35;;;;;;;3.83;1.00;;;22.30;51.70;;;;;;10377138;28;20389;-63
2022/07/17 01:01:36;;;;;;;1.17;0.60;;;22.30;51.60;;;;;;10408525;28;20033;-63
2022/07/17 01:06:37;;;;;;;1.13;0.80;;;22.20;51.70;;;;;;10404561;28;20040;-63
2022/07/17 01:11:38;;;;;;;2.28;1.00;;;22.30;51.80;;;;;;10413780;28;20462;-64
2022/07/17 01:16:40;;;;;;;2.53;1.00;;;22.20;51.70;;;;;;10374814;28;20095;-63
2022/07/17 01:21:44;;;;;;;2.20;1.02;;;22.20;51.60;;;;;;10372746;28;20037;-63
2022/07/17 01:26:47;;;;;;;2.53;1.38;;;22.20;51.70;;;;;;10392007;28;20543;-63
2022/07/17 01:31:48;;;;;;;1.67;0.73;;;22.20;51.70;;;;;;10398936;28;20081;-63
2022/07/17 01:36:49;;;;;;;3.67;1.10;;;22.20;51.80;;;;;;10373570;28;20027;-63
2022/07/17 01:41:49;;;;;;;1.63;0.90;;;22.20;51.70;;;;;;10375269;28;20073;-62
2022/07/17 01:46:50;;;;;;;1.88;1.15;;;22.20;51.50;;;;;;10376406;28;20105;-63
2022/07/17 01:51:51;;;;;;;2.88;1.00;;;22.20;51.50;;;;;;10412087;28;20033;-64
2022/07/17 01:56:52;;;;;;;2.10;1.30;;;22.10;51.40;;;;;;10392366;28;20030;-63
2022/07/17 02:01:52;;;;;;;1.83;1.10;;;22.10;51.40;;;;;;10385990;28;20033;-62
2022/07/17 02:06:54;;;;;;;2.33;0.95;;;22.10;51.40;;;;;;10386108;28;20132;-63
2022/07/17 02:11:55;;;;;;;4.50;0.90;;;22.10;51.40;;;;;;10386647;28;20026;-64
2022/07/17 02:16:56;;;;;;;2.28;1.00;;;22.10;51.50;;;;;;10393115;28;20037;-63
2022/07/17 02:21:57;;;;;;;1.83;0.90;;;22.10;51.40;;;;;;10402691;28;20060;-63
2022/07/17 02:26:58;;;;;;;2.70;0.80;;;22.10;51.40;;;;;;10389899;28;20033;-63
2022/07/17 02:31:59;;;;;;;3.25;0.95;;;22.10;51.50;;;;;;10401383;28;20094;-63
2022/07/17 02:36:59;;;;;;;3.28;1.08;;;22.10;51.40;;;;;;10411281;28;20029;-63
2022/07/17 02:42:00;;;;;;;2.05;0.90;;;22.10;51.30;;;;;;10396706;28;20571;-64
2022/07/17 02:47:01;;;;;;;1.95;1.00;;;22.10;51.20;;;;;;10400738;28;20091;-63
2022/07/17 02:52:01;;;;;;;3.35;1.05;;;22.10;51.20;;;;;;10372676;28;20033;-63
2022/07/17 02:57:02;;;;;;;1.95;1.00;;;22.10;51.20;;;;;;10381927;28;20108;-64
2022/07/17 03:02:04;;;;;;;1.75;1.20;;;22.00;51.20;;;;;;10382988;28;20112;-63
2022/07/17 03:07:04;;;;;;;2.05;0.98;;;22.00;51.20;;;;;;10406620;28;20095;-63
2022/07/17 03:12:06;;;;;;;2.50;0.93;;;22.00;51.20;;;;;;10368317;28;20164;-63
2022/07/17 03:17:06;;;;;;;2.35;1.13;;;22.00;51.30;;;;;;10369822;28;20042;-63
2022/07/17 03:22:07;;;;;;;2.15;0.95;;;22.00;51.10;;;;;;10394523;28;20030;-64
2022/07/17 03:27:08;;;;;;;1.58;1.17;;;22.00;51.10;;;;;;10387447;28;20087;-64
2022/07/17 03:32:08;;;;;;;3.10;1.15;;;21.90;51.10;;;;;;10399580;28;20030;-62
2022/07/17 03:37:09;;;;;;;1.80;1.10;;;21.90;51.30;;;;;;10370505;28;20026;-65
2022/07/17 03:42:10;;;;;;;2.33;1.05;;;21.90;51.00;;;;;;10368649;28;20045;-63
2022/07/17 03:47:10;;;;;;;2.15;0.90;;;21.90;51.00;;;;;;10402081;28;20044;-64
2022/07/17 03:52:11;;;;;;;1.98;1.13;;;21.90;51.00;;;;;;10370382;28;20034;-63
2022/07/17 03:57:12;;;;;;;3.63;1.15;;;21.90;51.00;;;;;;10398036;28;20032;-65
2022/07/17 04:02:12;;;;;;;2.17;1.10;;;21.90;51.10;;;;;;10407230;28;20041;-63
2022/07/17 04:07:26;;;;;;;1.75;1.00;;;21.80;50.90;;;;;;10408473;28;20120;-63
2022/07/17 04:12:27;;;;;;;2.75;1.13;;;21.90;51.20;;;;;;10372769;28;20108;-63
2022/07/17 04:17:28;;;;;;;2.00;1.00;;;21.80;51.20;;;;;;10379547;28;20120;-63
2022/07/17 04:22:29;;;;;;;2.10;0.93;;;21.80;51.70;;;;;;10383476;28;20033;-63
2022/07/17 04:27:30;;;;;;;1.95;1.20;;;21.80;52.00;;;;;;10385693;28;20444;-63
2022/07/17 04:32:30;;;;;;;1.85;1.00;;;21.80;51.80;;;;;;10389339;28;20026;-63
2022/07/17 04:37:31;;;;;;;3.83;1.25;;;21.80;51.30;;;;;;10400651;28;20034;-63
2022/07/17 04:42:32;;;;;;;2.35;1.48;;;21.80;52.90;;;;;;10388742;28;20041;-62
2022/07/17 04:47:34;;;;;;;4.80;2.05;;;21.80;53.20;;;;;;10374974;28;20044;-62
2022/07/17 04:52:36;;;;;;;6.68;2.85;;;21.90;53.20;;;;;;10396906;28;20057;-63
2022/07/17 04:57:37;;;;;;;8.68;3.08;;;22.00;54.60;;;;;;10412065;28;20037;-63
2022/07/17 05:02:37;;;;;;;8.77;2.90;;;22.00;54.40;;;;;;10380359;28;20388;-63
2022/07/17 05:07:38;;;;;;;16.25;3.28;;;22.00;55.10;;;;;;10373130;28;20026;-62
2022/07/17 05:12:39;;;;;;;11.75;2.95;;;22.10;54.80;;;;;;10379657;28;20040;-64
2022/07/17 05:17:40;;;;;;;14.75;2.60;;;22.10;54.60;;;;;;10397864;28;20171;-63
2022/07/17 05:22:41;;;;;;;17.15;3.28;;;22.00;53.90;;;;;;10378088;28;20045;-63
2022/07/17 05:27:41;;;;;;;8.02;4.00;;;21.90;53.20;;;;;;10396467;28;20114;-63
2022/07/17 05:32:42;;;;;;;11.80;3.22;;;21.90;52.70;;;;;;10373968;28;20037;-62
2022/07/17 05:37:43;;;;;;;12.93;3.13;;;21.90;52.70;;;;;;10395835;28;20039;-62
2022/07/17 05:42:43;;;;;;;10.40;2.85;;;21.80;52.80;;;;;;10405797;28;20133;-62
2022/07/17 05:47:44;;;;;;;13.32;2.70;;;21.80;52.90;;;;;;10372713;28;20140;-62
2022/07/17 05:52:45;;;;;;;12.25;2.20;;;21.80;53.00;;;;;;10373423;28;20045;-62
2022/07/17 05:57:46;;;;;;;7.68;2.20;;;21.80;53.00;;;;;;10371437;28;20116;-62
2022/07/17 06:02:46;;;;;;;7.28;2.22;;;21.80;52.90;;;;;;10372938;28;20042;-63
2022/07/17 06:07:47;;;;;;;11.15;2.03;;;21.80;53.00;;;;;;10370995;28;20486;-63
2022/07/17 06:12:49;;;;;;;5.13;1.92;;;21.80;53.00;;;;;;10371029;28;20116;-62
2022/07/17 06:17:50;;;;;;;6.68;1.70;;;21.70;53.10;;;;;;10370724;28;20030;-62
2022/07/17 06:22:51;;;;;;;7.00;2.63;;;21.80;53.20;;;;;;10376655;28;20041;-62
2022/07/17 06:27:51;;;;;;;8.07;2.10;;;21.70;53.80;;;;;;10415390;28;20480;-63
2022/07/17 06:32:52;;;;;;;6.65;1.65;;;21.70;53.40;;;;;;10377715;28;20030;-63
2022/07/17 06:37:53;;;;;;;3.67;1.40;;;21.70;53.30;;;;;;10369993;28;20421;-62
2022/07/17 06:42:53;;;;;;;6.90;1.98;;;21.70;53.50;;;;;;10375215;28;20461;-62
2022/07/17 06:47:54;;;;;;;4.13;1.52;;;21.70;53.70;;;;;;10392354;28;20018;-62
2022/07/17 06:52:55;;;;;;;6.38;1.63;;;21.70;53.50;;;;;;10373607;28;20037;-63
2022/07/17 06:57:55;;;;;;;9.57;1.85;;;21.70;53.60;;;;;;10390716;28;20048;-61
2022/07/17 07:02:56;;;;;;;11.65;2.67;;;21.70;53.60;;;;;;10389374;28;20480;-63
2022/07/17 07:07:57;;;;;;;5.70;1.55;;;21.70;53.50;;;;;;10389640;28;20034;-65
2022/07/17 07:12:58;;;;;;;14.63;2.08;;;21.70;53.40;;;;;;10374829;28;20026;-64
2022/07/17 07:17:58;;;;;;;7.63;1.90;;;21.70;53.60;;;;;;10383565;28;20038;-66
2022/07/17 07:22:59;;;;;;;6.03;1.50;;;21.70;53.80;;;;;;10387677;28;20033;-65
2022/07/17 07:28:00;;;;;;;3.10;1.75;;;21.70;53.80;;;;;;10392010;28;20643;-66
2022/07/17 07:33:00;;;;;;;12.23;2.10;;;21.70;51.40;;;;;;10367902;28;20062;-64
2022/07/17 07:38:03;;;;;;;15.60;2.95;;;21.70;51.90;;;;;;10391543;28;20045;-63
2022/07/17 07:43:04;;;;;;;15.30;2.70;;;21.70;51.80;;;;;;10377206;28;20038;-64
2022/07/17 07:48:05;;;;;;;16.30;2.63;;;21.70;51.90;;;;;;10380387;28;20029;-65
2022/07/17 07:53:06;;;;;;;23.05;2.75;;;21.70;52.10;;;;;;10358983;28;20440;-64
2022/07/17 07:58:12;;;;;;;18.63;2.85;;;21.70;52.30;;;;;;10375568;28;20099;-64
2022/07/17 08:03:14;;;;;;;19.35;3.67;;;21.70;52.20;;;;;;10389434;28;20045;-65
2022/07/17 08:08:15;;;;;;;19.58;3.22;;;21.70;52.30;;;;;;10385895;28;20022;-64
2022/07/17 08:13:16;;;;;;;9.95;2.13;;;21.70;52.20;;;;;;10385684;28;20421;-63
2022/07/17 08:18:17;;;;;;;20.17;2.75;;;21.70;52.30;;;;;;10402382;28;20025;-64
2022/07/17 08:23:18;;;;;;;20.50;2.83;;;21.70;51.60;;;;;;10366319;28;20412;-65
2022/07/17 08:28:19;;;;;;;19.65;3.85;;;21.70;51.70;;;;;;10388286;28;20397;-64
2022/07/17 08:33:20;;;;;;;16.08;2.60;;;21.80;51.90;;;;;;10366388;28;20048;-64
2022/07/17 08:38:21;;;;;;;15.65;2.55;;;21.80;52.00;;;;;;10366146;28;20072;-64
2022/07/17 08:43:21;;;;;;;8.98;1.75;;;21.80;52.20;;;;;;10375289;28;20033;-64
2022/07/17 08:48:27;;;;;;;18.83;2.70;;;21.70;52.20;;;;;;10390303;28;20163;-62
2022/07/17 08:53:27;;;;;;;14.07;2.08;;;21.70;51.80;;;;;;10385468;28;20389;-64
2022/07/17 08:58:28;;;;;;;6.00;1.73;;;21.70;51.80;;;;;;10389536;28;20120;-63
2022/07/17 09:03:29;;;;;;;6.78;1.60;;;21.70;52.50;;;;;;10400817;28;20037;-63
2022/07/17 09:08:32;;;;;;;8.10;1.80;;;21.70;51.80;;;;;;10366447;28;20385;-64
2022/07/17 09:13:33;;;;;;;8.82;2.08;;;21.70;52.00;;;;;;10393399;28;20052;-63
2022/07/17 09:18:50;;;;;;;7.47;1.63;;;21.70;51.10;;;;;;10392639;28;20109;-62
2022/07/17 09:24:17;;;;;;;10.07;2.40;;;21.70;51.00;;;;;;10398528;28;20071;-64
2022/07/17 09:29:18;;;;;;;6.90;1.80;;;21.70;50.70;;;;;;10402505;28;20042;-64
2022/07/17 09:34:19;;;;;;;7.13;1.85;;;21.70;50.30;;;;;;10372362;28;20478;-64
2022/07/17 09:39:19;;;;;;;4.32;2.10;;;21.70;50.60;;;;;;10389275;28;20034;-63
2022/07/17 09:44:20;;;;;;;6.57;1.73;;;21.70;50.70;;;;;;10373416;28;20140;-63
2022/07/17 09:49:27;;;;;;;3.83;1.35;;;21.70;50.70;;;;;;10399126;28;20054;-63
2022/07/17 09:54:28;;;;;;;9.10;1.55;;;21.70;50.70;;;;;;10411497;28;20132;-63
2022/07/17 09:59:36;;;;;;;9.05;1.52;;;21.70;50.90;;;;;;10398673;28;20524;-63
2022/07/17 10:04:37;;;;;;;7.50;1.88;;;21.70;50.90;;;;;;10384081;28;20032;-63
2022/07/17 10:09:39;;;;;;;6.28;1.20;;;21.70;50.80;;;;;;10371455;28;20465;-63
2022/07/17 10:14:41;;;;;;;7.82;1.58;;;21.70;50.80;;;;;;10380188;28;20117;-63
2022/07/17 10:19:53;;;;;;;11.85;2.35;;;21.70;50.80;;;;;;10395545;28;20046;-63
2022/07/17 10:25:04;;;;;;;6.43;1.80;;;21.70;50.90;;;;;;10371007;28;20044;-63
2022/07/17 10:30:10;;;;;;;11.45;1.85;;;21.70;51.10;;;;;;10387152;28;20485;-63
2022/07/17 10:35:11;;;;;;;9.35;2.35;;;21.70;51.00;;;;;;10378358;28;20045;-62
2022/07/17 10:40:23;;;;;;;6.18;2.22;;;21.70;51.60;;;;;;10382599;28;20401;-62
2022/07/17 10:45:44;;;;;;;13.85;3.28;;;21.70;51.40;;;;;;10373907;28;20083;-62
2022/07/17 10:50:55;;;;;;;6.13;1.80;;;21.70;51.40;;;;;;10395845;28;20482;-63
2022/07/17 10:56:03;;;;;;;7.65;3.35;;;21.70;51.60;;;;;;10382150;28;20363;-62
2022/07/17 11:01:16;;;;;;;9.93;1.83;;;21.70;51.70;;;;;;10369287;28;20049;-62
2022/07/17 11:06:24;;;;;;;4.72;1.40;;;21.70;51.60;;;;;;10391218;28;20384;-62
2022/07/17 11:11:51;;;;;;;6.18;1.55;;;21.70;51.60;;;;;;10372473;28;20029;-62
2022/07/17 11:17:00;;;;;;;3.92;1.50;;;21.70;51.70;;;;;;10391455;28;20485;-62
2022/07/17 11:22:04;;;;;;;6.28;1.58;;;21.80;51.80;;;;;;10368017;28;20033;-62
2022/07/17 11:27:05;;;;;;;6.05;1.55;;;21.70;52.00;;;;;;10380470;28;20045;-62
2022/07/17 11:32:07;;;;;;;5.00;1.52;;;21.70;52.20;;;;;;10388515;28;20030;-62
2022/07/17 11:37:09;;;;;;;5.63;2.08;;;21.70;52.10;;;;;;10368848;28;20034;-62
2022/07/17 11:42:15;;;;;;;5.57;1.63;;;21.70;52.00;;;;;;10403036;28;20041;-62
2022/07/17 11:47:23;;;;;;;3.90;1.00;;;21.70;52.20;;;;;;10407603;28;20045;-62
2022/07/17 11:52:24;;;;;;;7.57;1.77;;;21.80;52.40;;;;;;10391608;28;20045;-62
2022/07/17 11:57:27;;;;;;;2.78;1.25;;;21.80;52.40;;;;;;10368180;28;20038;-62
2022/07/17 12:02:31;;;;;;;3.63;1.73;;;21.70;52.50;;;;;;10382095;28;20034;-62
2022/07/17 12:07:43;;;;;;;3.45;1.40;;;21.70;52.40;;;;;;10377664;28;20552;-62
2022/07/17 12:12:57;;;;;;;4.75;2.03;;;21.70;52.50;;;;;;10381799;28;20471;-62
2022/07/17 12:17:58;;;;;;;6.57;1.42;;;21.80;53.00;;;;;;10408095;28;20059;-62
2022/07/17 12:22:59;;;;;;;4.28;1.30;;;21.70;53.00;;;;;;10381158;28;20045;-62
2022/07/17 12:27:59;;;;;;;4.97;1.33;;;21.70;53.30;;;;;;10376164;28;20108;-62
2022/07/17 12:33:00;;;;;;;6.30;1.33;;;21.70;53.30;;;;;;10370895;28;20036;-62
2022/07/17 12:38:01;;;;;;;3.28;1.10;;;21.70;53.60;;;;;;10408076;28;20156;-62
2022/07/17 12:43:02;;;;;;;2.63;1.20;;;21.70;53.40;;;;;;10388540;28;20430;-62
2022/07/17 12:48:03;;;;;;;2.85;1.40;;;21.70;53.50;;;;;;10368019;28;20096;-62
2022/07/17 12:53:04;;;;;;;2.50;1.10;;;21.80;53.50;;;;;;10349493;28;20049;-62
2022/07/17 12:58:05;;;;;;;2.42;1.00;;;21.70;53.50;;;;;;10400856;28;20037;-62
2022/07/17 13:03:06;;;;;;;6.22;1.10;;;21.80;53.50;;;;;;10397720;28;20029;-63
2022/07/17 13:08:06;;;;;;;3.25;1.30;;;21.80;53.50;;;;;;10409532;28;20481;-63
2022/07/17 13:13:08;;;;;;;4.15;1.85;;;21.80;54.10;;;;;;10414395;28;20025;-61
2022/07/17 13:18:09;;;;;;;4.82;1.15;;;21.80;53.20;;;;;;10401499;28;20034;-61
2022/07/17 13:23:10;;;;;;;3.75;1.15;;;21.80;53.30;;;;;;10377368;28;20409;-62
2022/07/17 13:28:11;;;;;;;3.33;1.20;;;21.80;53.50;;;;;;10407220;28;20108;-62
2022/07/17 13:33:11;;;;;;;4.70;1.50;;;21.80;54.50;;;;;;10369791;28;20026;-62
2022/07/17 13:38:12;;;;;;;4.65;2.15;;;21.80;53.60;;;;;;10359143;28;20033;-61
2022/07/17 13:43:13;;;;;;;4.28;1.10;;;21.80;53.30;;;;;;10380175;28;20033;-61
2022/07/17 13:48:14;;;;;;;7.05;1.25;;;21.80;53.60;;;;;;10375429;28;20038;-61
2022/07/17 13:53:15;;;;;;;5.05;1.58;;;21.80;53.80;;;;;;10389959;28;20052;-62
2022/07/17 13:58:15;;;;;;;3.95;1.15;;;21.80;54.00;;;;;;10412040;28;20103;-61
2022/07/17 14:03:16;;;;;;;3.45;1.60;;;21.80;53.80;;;;;;10403059;28;20033;-61
2022/07/17 14:08:17;;;;;;;2.38;1.10;;;21.80;53.70;;;;;;10380583;28;20032;-62
2022/07/17 14:13:18;;;;;;;3.33;1.17;;;21.80;53.50;;;;;;10388821;28;20527;-62
2022/07/17 14:18:18;;;;;;;2.88;1.13;;;21.80;54.00;;;;;;10383646;28;20567;-62
2022/07/17 14:23:19;;;;;;;4.10;1.40;;;21.80;53.80;;;;;;10380047;28;20029;-62
2022/07/17 14:28:20;;;;;;;4.00;1.85;;;21.80;54.00;;;;;;10382664;28;20036;-62
2022/07/17 14:33:20;;;;;;;5.70;1.40;;;21.80;54.10;;;;;;10382696;28;20132;-63
2022/07/17 14:38:21;;;;;;;3.25;1.65;;;21.80;54.10;;;;;;10366358;28;20042;-62
2022/07/17 14:43:22;;;;;;;3.78;1.50;;;21.80;53.80;;;;;;10391475;28;20108;-62
2022/07/17 14:48:23;;;;;;;3.03;1.67;;;21.80;54.00;;;;;;10410247;28;20124;-62
2022/07/17 14:53:23;;;;;;;2.30;1.25;;;21.80;54.10;;;;;;10408767;28;20025;-61
2022/07/17 14:58:24;;;;;;;4.50;1.38;;;21.80;54.30;;;;;;10408635;28;20037;-62
2022/07/17 15:03:25;;;;;;;2.55;1.23;;;21.80;54.30;;;;;;10372150;28;20034;-62
2022/07/17 15:08:25;;;;;;;2.63;1.10;;;21.80;54.20;;;;;;10379777;28;20072;-62
2022/07/17 15:13:26;;;;;;;6.13;1.90;;;21.80;54.10;;;;;;10390385;28;20033;-61
2022/07/17 15:18:27;;;;;;;3.20;1.40;;;21.80;54.00;;;;;;10375587;28;20044;-61
2022/07/17 15:23:28;;;;;;;9.02;1.40;;;21.80;53.80;;;;;;10375081;28;20037;-60
2022/07/17 15:28:29;;;;;;;7.60;1.40;;;21.80;55.70;;;;;;10376298;28;20037;-62
2022/07/17 15:33:29;;;;;;;3.60;1.30;;;21.90;55.90;;;;;;10380887;28;20061;-61
2022/07/17 15:38:30;;;;;;;5.22;1.88;;;22.10;56.10;;;;;;10399933;28;20119;-62
2022/07/17 15:43:31;;;;;;;6.32;2.30;;;22.30;56.20;;;;;;10407040;28;20033;-61
2022/07/17 15:48:32;;;;;;;4.25;2.55;;;22.50;55.60;;;;;;10376147;28;20036;-62
2022/07/17 15:53:32;;;;;;;5.88;3.10;;;22.60;55.90;;;;;;10378255;28;20556;-61
2022/07/17 15:58:33;;;;;;;7.25;3.33;;;22.70;55.70;;;;;;10385943;28;20120;-61
2022/07/17 16:03:34;;;;;;;5.07;2.78;;;22.70;56.00;;;;;;10383034;28;20030;-61
2022/07/17 16:08:34;;;;;;;5.13;3.03;;;22.80;57.10;;;;;;10384875;28;20041;-61
2022/07/17 16:13:35;;;;;;;17.80;9.10;;;22.90;57.70;;;;;;10363455;28;20041;-61
2022/07/17 16:18:36;;;;;;;13.20;5.95;;;22.90;58.10;;;;;;10393517;28;20033;-61
2022/07/17 16:23:38;;;;;;;12.45;5.03;;;23.10;55.10;;;;;;10400015;28;20034;-62
2022/07/17 16:28:38;;;;;;;15.77;4.50;;;23.10;54.90;;;;;;10403858;28;20033;-62
2022/07/17 16:33:39;;;;;;;14.15;4.78;;;22.90;55.00;;;;;;10388681;28;20044;-61
2022/07/17 16:38:40;;;;;;;9.57;4.90;;;22.70;56.30;;;;;;10402031;28;20095;-62
2022/07/17 16:43:41;;;;;;;13.05;5.28;;;22.60;56.60;;;;;;10395852;28;20057;-62
2022/07/17 16:48:41;;;;;;;7.68;4.18;;;22.60;56.90;;;;;;10374080;28;20037;-61
2022/07/17 16:53:42;;;;;;;5.55;3.25;;;22.50;56.60;;;;;;10383681;28;20030;-62
2022/07/17 16:58:43;;;;;;;6.32;3.65;;;22.50;56.70;;;;;;10376686;28;20036;-64
2022/07/17 17:03:44;;;;;;;9.30;3.97;;;22.50;55.40;;;;;;10380820;28;20049;-62
2022/07/17 17:08:45;;;;;;;7.53;3.92;;;22.50;54.50;;;;;;10400950;28;20516;-62
2022/07/17 17:13:46;;;;;;;9.30;4.20;;;22.50;53.60;;;;;;10403019;28;20061;-62
2022/07/17 17:18:46;;;;;;;5.75;3.58;;;22.50;53.60;;;;;;10399120;28;20524;-62
2022/07/17 17:23:49;;;;;;;7.40;3.97;;;22.50;53.40;;;;;;10389406;28;20042;-62
2022/07/17 17:28:50;;;;;;;9.98;3.83;;;22.50;53.10;;;;;;10394605;28;20504;-62
2022/07/17 17:33:51;;;;;;;6.45;3.42;;;22.50;51.80;;;;;;10373916;28;20038;-61
2022/07/17 17:38:52;;;;;;;9.90;4.20;;;22.50;52.10;;;;;;10371911;28;20054;-61
2022/07/17 17:43:52;;;;;;;8.20;3.75;;;22.50;51.80;;;;;;10384888;28;20056;-61
2022/07/17 17:48:53;;;;;;;7.15;3.70;;;22.50;51.20;;;;;;10374141;28;20107;-61
2022/07/17 17:53:54;;;;;;;8.60;3.97;;;22.50;51.30;;;;;;10398748;28;20033;-61
2022/07/17 17:58:55;;;;;;;12.38;4.22;;;22.50;51.10;;;;;;10371773;28;20034;-62
2022/07/17 18:03:57;;;;;;;13.18;4.45;;;22.40;51.40;;;;;;10397240;28;20117;-61
2022/07/17 18:08:59;;;;;;;14.40;4.50;;;22.40;51.90;;;;;;10402322;28;20560;-63
2022/07/17 18:14:00;;;;;;;9.02;4.10;;;22.50;51.80;;;;;;10386289;28;20042;-62
2022/07/17 18:19:00;;;;;;;9.05;4.85;;;22.40;52.20;;;;;;10401527;28;20034;-62
2022/07/17 18:24:01;;;;;;;11.23;4.80;;;22.40;52.30;;;;;;10377255;28;20923;-66
2022/07/17 18:29:02;;;;;;;8.63;4.35;;;22.40;52.50;;;;;;10379463;28;20473;-63
2022/07/17 18:34:03;;;;;;;13.98;5.07;;;22.30;52.60;;;;;;10370035;28;20069;-63
2022/07/17 18:39:03;;;;;;;8.32;4.38;;;22.30;52.80;;;;;;10381317;28;20053;-63
2022/07/17 18:44:04;;;;;;;6.82;3.80;;;22.30;52.90;;;;;;10370615;28;20595;-63
2022/07/17 18:49:05;;;;;;;7.13;4.10;;;22.30;53.00;;;;;;10376814;28;20040;-62
2022/07/17 18:54:05;;;;;;;11.80;4.43;;;22.30;53.10;;;;;;10396871;28;20060;-63
2022/07/17 18:59:06;;;;;;;7.93;4.50;;;22.30;53.20;;;;;;10393437;28;20562;-63
2022/07/17 19:04:07;;;;;;;9.23;3.97;;;22.30;53.30;;;;;;10378701;28;20029;-62
2022/07/17 19:09:08;;;;;;;11.30;4.18;;;22.30;53.60;;;;;;10386791;28;20041;-63
2022/07/17 19:14:09;;;;;;;15.65;4.38;;;22.40;54.20;;;;;;10380365;28;20030;-63
2022/07/17 19:19:10;;;;;;;17.55;5.72;;;22.40;54.60;;;;;;10380164;28;20018;-62
2022/07/17 19:24:11;;;;;;;15.27;5.32;;;22.40;54.60;;;;;;10384916;28;20026;-63
2022/07/17 19:29:12;;;;;;;12.52;4.35;;;22.40;54.50;;;;;;10382136;28;20072;-62
2022/07/17 19:34:13;;;;;;;22.15;6.10;;;22.40;54.50;;;;;;10376973;28;20602;-62
2022/07/17 19:39:14;;;;;;;17.17;4.95;;;22.40;54.70;;;;;;10380933;28;20507;-63
2022/07/17 19:44:15;;;;;;;22.75;6.22;;;22.40;54.90;;;;;;10379059;28;20044;-62
2022/07/17 19:49:16;;;;;;;13.18;5.30;;;22.40;55.00;;;;;;10383662;28;20030;-61
2022/07/17 19:54:17;;;;;;;16.67;5.82;;;22.40;54.70;;;;;;10380279;28;20527;-62
2022/07/17 19:59:18;;;;;;;19.17;5.47;;;22.40;54.70;;;;;;10374635;28;20041;-62
2022/07/17 20:04:18;;;;;;;13.27;5.30;;;22.30;54.60;;;;;;10387465;28;20040;-62
2022/07/17 20:09:19;;;;;;;15.57;5.97;;;22.30;54.50;;;;;;10390066;28;20045;-62
2022/07/17 20:14:20;;;;;;;15.88;5.22;;;22.30;54.60;;;;;;10386555;28;20045;-62
2022/07/17 20:19:20;;;;;;;39.90;8.82;;;22.30;54.70;;;;;;10372761;28;20037;-63
2022/07/17 20:24:21;;;;;;;19.95;6.38;;;22.30;55.10;;;;;;10379945;28;20412;-63
2022/07/17 20:29:22;;;;;;;21.20;6.55;;;22.30;55.30;;;;;;10387451;28;20392;-62
2022/07/17 20:34:23;;;;;;;14.23;5.50;;;22.40;55.20;;;;;;10368117;28;20041;-63
2022/07/17 20:39:23;;;;;;;16.88;5.88;;;22.40;55.20;;;;;;10378557;28;20128;-63
2022/07/17 20:44:24;;;;;;;17.00;6.32;;;22.30;55.20;;;;;;10378562;28;20216;-63
2022/07/17 20:49:25;;;;;;;14.48;6.80;;;22.30;55.10;;;;;;10385002;28;20120;-63
2022/07/17 20:54:25;;;;;;;16.33;5.72;;;22.30;55.20;;;;;;10384833;28;20038;-63
2022/07/17 20:59:26;;;;;;;15.00;5.78;;;22.30;55.20;;;;;;10378792;28;20030;-63
2022/07/17 21:04:27;;;;;;;13.55;5.93;;;22.30;55.30;;;;;;10384083;28;20029;-63
2022/07/17 21:09:28;;;;;;;11.02;5.78;;;22.30;55.30;;;;;;10405917;28;20036;-63
2022/07/17 21:14:28;;;;;;;12.18;5.72;;;22.30;55.30;;;;;;10391875;28;20045;-63
2022/07/17 21:19:29;;;;;;;10.82;5.05;;;22.30;55.40;;;;;;10365621;28;20432;-63
2022/07/17 21:24:30;;;;;;;11.70;5.53;;;22.30;55.30;;;;;;10387808;28;20079;-63
2022/07/17 21:29:30;;;;;;;13.05;5.80;;;22.30;55.40;;;;;;10379967;28;20030;-63
2022/07/17 21:34:31;;;;;;;9.82;5.03;;;22.30;55.40;;;;;;10399910;28;20055;-63
2022/07/17 21:39:32;;;;;;;10.00;4.30;;;22.30;55.50;;;;;;10414188;28;20290;-63
2022/07/17 21:44:33;;;;;;;10.93;4.97;;;22.30;55.50;;;;;;10412796;28;20579;-63
2022/07/17 21:49:33;;;;;;;14.70;5.63;;;22.30;55.60;;;;;;10412695;28;20029;-63
2022/07/17 21:54:34;;;;;;;9.88;5.15;;;22.30;55.60;;;;;;10399278;28;20562;-63
2022/07/17 21:59:35;;;;;;;11.73;4.82;;;22.30;55.70;;;;;;10385683;28;20124;-63
2022/07/17 22:04:36;;;;;;;10.07;5.15;;;22.30;55.60;;;;;;10379061;28;20428;-62
2022/07/17 22:09:37;;;;;;;7.68;4.88;;;22.20;55.50;;;;;;10372251;28;20095;-63
2022/07/17 22:14:38;;;;;;;6.93;4.60;;;22.30;55.70;;;;;;10400700;28;20034;-63
2022/07/17 22:19:41;;;;;;;11.60;4.90;;;22.30;55.60;;;;;;10412847;28;20141;-62
2022/07/17 22:24:42;;;;;;;7.30;4.75;;;22.20;55.60;;;;;;10371341;28;20069;-63
2022/07/17 22:29:43;;;;;;;9.02;4.55;;;22.30;55.70;;;;;;10392824;28;20436;-63
2022/07/17 22:34:44;;;;;;;8.88;4.55;;;22.20;55.70;;;;;;10382392;28;20033;-63
2022/07/17 22:39:44;;;;;;;8.20;4.50;;;22.30;55.70;;;;;;10389711;28;20060;-63
2022/07/17 22:44:45;;;;;;;7.88;4.70;;;22.20;55.70;;;;;;10397140;28;20512;-63
2022/07/17 22:49:46;;;;;;;9.13;5.20;;;22.20;55.70;;;;;;10397231;28;20119;-63
2022/07/17 22:54:47;;;;;;;9.05;4.18;;;22.20;55.60;;;;;;10411364;28;20047;-63
2022/07/17 22:59:48;;;;;;;8.63;4.18;;;22.20;55.60;;;;;;10410550;28;20109;-63
2022/07/17 23:04:50;;;;;;;7.35;4.43;;;22.20;55.50;;;;;;10396674;28;20678;-63
2022/07/17 23:09:51;;;;;;;6.78;4.00;;;22.20;55.60;;;;;;10410278;28;20075;-63
2022/07/17 23:14:51;;;;;;;10.48;5.00;;;22.20;55.50;;;;;;10372713;28;20030;-63
2022/07/17 23:19:52;;;;;;;5.68;3.92;;;22.20;55.50;;;;;;10382631;28;20039;-63
2022/07/17 23:24:53;;;;;;;7.10;3.90;;;22.20;55.40;;;;;;10368581;28;20036;-63
2022/07/17 23:29:54;;;;;;;5.30;3.60;;;22.20;55.50;;;;;;10369372;28;20109;-63
2022/07/17 23:34:58;;;;;;;9.88;4.43;;;22.20;55.40;;;;;;10396015;28;20703;-62
2022/07/17 23:39:59;;;;;;;7.70;4.60;;;22.20;55.40;;;;;;10400180;28;20037;-63
2022/07/17 23:45:02;;;;;;;9.18;3.95;;;22.20;55.50;;;;;;10407354;28;20507;-63
2022/07/17 23:50:05;;;;;;;6.13;3.83;;;22.20;55.30;;;;;;10409435;28;20461;-63
2022/07/17 23:55:07;;;;;;;5.60;3.85;;;22.20;55.30;;;;;;10393950;28;20103;-64
